Time;durP1;ratioP1;P1;durP2;ratioP2;P2;SDS_P1;SDS_P2;PMS_P1;PMS_P2;Temp;Humidity;BMP_temperature;BMP_pressure;BME280_temperature;BME280_humidity;BME280_pressure;Samples;Min_cycle;Max_cycle;Signal;HPM_P1;HPM_P2
2022/04/28 00:00:37;;;;;;;2.38;1.20;;;18.70;45.80;;;;;;5041006;28;20181;-82
2022/04/28 00:03:03;;;;;;;3.25;1.20;;;18.70;45.90;;;;;;5075048;28;20169;-83
2022/04/28 00:05:29;;;;;;;2.78;1.33;;;18.70;45.90;;;;;;5074622;28;20169;-85
2022/04/28 00:07:54;;;;;;;2.70;1.38;;;18.70;46.00;;;;;;5074853;28;20164;-86
2022/04/28 00:10:20;;;;;;;2.05;1.20;;;18.70;45.90;;;;;;5058009;28;20681;-87
2022/04/28 00:12:46;;;;;;;4.38;1.27;;;18.70;45.90;;;;;;5041667;28;20232;-86
2022/04/28 00:15:11;;;;;;;1.98;1.30;;;18.70;45.90;;;;;;5057966;28;20157;-85
2022/04/28 00:17:37;;;;;;;2.28;1.33;;;18.70;45.90;;;;;;5058154;28;20567;-85
2022/04/28 00:20:03;;;;;;;3.47;1.38;;;18.70;46.00;;;;;;5057663;28;20172;-82
2022/04/28 00:22:30;;;;;;;2.05;1.10;;;18.70;46.10;;;;;;5074469;28;20298;-87
2022/04/28 00:24:56;;;;;;;2.42;1.30;;;18.60;46.00;;;;;;5074454;28;20165;-86
2022/04/28 00:27:22;;;;;;;1.10;1.00;;;18.70;46.10;;;;;;5057631;28;20252;-86
2022/04/28 00:29:48;;;;;;;2.95;1.33;;;18.60;45.90;;;;;;5057737;28;20527;-84
2022/04/28 00:32:14;;;;;;;1.65;1.10;;;18.60;46.10;;;;;;5074426;28;20162;-85
2022/04/28 00:34:41;;;;;;;2.45;1.35;;;18.60;46.00;;;;;;5074095;28;20196;-86
2022/04/28 00:37:09;;;;;;;1.92;1.33;;;18.60;45.80;;;;;;5057571;28;20534;-83
2022/04/28 00:39:37;;;;;;;1.77;1.08;;;18.60;45.90;;;;;;5074122;28;20181;-86
2022/04/28 00:42:08;;;;;;;2.67;1.20;;;18.60;45.80;;;;;;5073938;28;20555;-87
2022/04/28 00:44:34;;;;;;;4.03;1.13;;;18.60;46.20;;;;;;5075233;28;20180;-82
2022/04/28 00:47:00;;;;;;;2.83;1.27;;;18.60;46.10;;;;;;5073976;28;20593;-86
2022/04/28 00:52:03;;;;;;;2.25;1.30;;;18.60;46.10;;;;;;5073803;28;20827;-86
2022/04/28 00:54:29;;;;;;;1.83;1.20;;;18.60;46.00;;;;;;5040901;28;20285;-85
2022/04/28 00:56:56;;;;;;;1.73;1.30;;;18.60;46.00;;;;;;5073900;28;20154;-84
2022/04/28 00:59:22;;;;;;;2.13;1.15;;;18.60;46.30;;;;;;5056939;28;20264;-85
2022/04/28 01:01:50;;;;;;;3.13;1.15;;;18.60;46.20;;;;;;5073793;28;20715;-82
2022/04/28 01:04:18;;;;;;;1.38;1.10;;;18.60;46.90;;;;;;5056407;28;20185;-84
2022/04/28 01:06:47;;;;;;;1.45;0.98;;;18.60;46.30;;;;;;5039770;28;20212;-86
2022/04/28 01:09:16;;;;;;;2.13;1.20;;;18.60;46.20;;;;;;5039579;28;20187;-84
2022/04/28 01:11:44;;;;;;;3.10;1.20;;;18.60;46.20;;;;;;5023287;28;20178;-84
2022/04/28 01:14:12;;;;;;;3.58;1.23;;;18.60;46.10;;;;;;5056264;28;20177;-83
2022/04/28 01:16:40;;;;;;;3.25;1.48;;;18.60;46.10;;;;;;5039386;28;20189;-85
2022/04/28 01:19:06;;;;;;;3.20;1.10;;;18.60;46.40;;;;;;5023003;28;20316;-84
2022/04/28 01:21:32;;;;;;;2.10;1.30;;;18.60;46.00;;;;;;5073220;28;20193;-82
2022/04/28 01:23:58;;;;;;;2.63;1.40;;;18.60;46.20;;;;;;5074396;28;20196;-83
2022/04/28 01:26:24;;;;;;;1.40;1.02;;;18.60;46.30;;;;;;5074691;28;20162;-86
2022/04/28 01:28:50;;;;;;;1.65;1.10;;;18.50;46.30;;;;;;5073051;28;20169;-83
2022/04/28 01:31:15;;;;;;;1.73;1.20;;;18.50;46.30;;;;;;5064892;28;20245;-83
2022/04/28 01:33:41;;;;;;;3.58;1.30;;;18.60;46.30;;;;;;5074648;28;20215;-86
2022/04/28 01:36:07;;;;;;;2.85;1.17;;;18.50;46.50;;;;;;5072893;28;20173;-84
2022/04/28 01:38:33;;;;;;;1.83;1.35;;;18.50;46.40;;;;;;5074115;28;20189;-87
2022/04/28 01:41:00;;;;;;;3.50;1.70;;;18.50;46.50;;;;;;5074010;28;20149;-86
2022/04/28 01:43:27;;;;;;;2.45;1.17;;;18.50;46.40;;;;;;5055514;28;20610;-82
2022/04/28 01:45:55;;;;;;;2.13;1.20;;;18.50;46.30;;;;;;5038910;28;20188;-85
2022/04/28 01:48:22;;;;;;;3.08;1.52;;;18.50;46.50;;;;;;5022208;28;20250;-83
2022/04/28 01:56:07;;;;;;;1.83;1.35;;;18.50;46.70;;;;;;5042618;28;20181;-85
2022/04/28 01:58:33;;;;;;;3.35;1.30;;;18.50;46.60;;;;;;5038520;28;20572;-86
2022/04/28 02:00:59;;;;;;;2.25;1.38;;;18.50;46.60;;;;;;5055320;28;20638;-84
2022/04/28 02:03:24;;;;;;;2.63;1.33;;;18.40;46.40;;;;;;5039211;28;20624;-84
2022/04/28 02:05:50;;;;;;;2.03;1.02;;;18.50;46.60;;;;;;5072345;28;20172;-83
2022/04/28 02:08:15;;;;;;;2.38;1.30;;;18.50;47.30;;;;;;5055736;28;20177;-85
2022/04/28 02:10:41;;;;;;;2.72;1.20;;;18.50;46.60;;;;;;5073449;28;20193;-88
2022/04/28 02:13:07;;;;;;;1.30;1.00;;;18.50;46.70;;;;;;5073788;28;20242;-85
2022/04/28 02:15:33;;;;;;;1.67;1.20;;;18.50;46.70;;;;;;5072281;28;20226;-86
2022/04/28 02:17:59;;;;;;;1.48;1.17;;;18.50;46.60;;;;;;5072572;28;20547;-84
2022/04/28 02:20:26;;;;;;;2.90;1.35;;;18.50;46.40;;;;;;5073510;28;20168;-83
2022/04/28 02:22:53;;;;;;;1.27;1.10;;;18.50;46.60;;;;;;5037941;28;20262;-84
2022/04/28 02:25:20;;;;;;;1.30;1.10;;;18.50;46.50;;;;;;5038260;28;20185;-86
2022/04/28 02:27:47;;;;;;;2.03;1.17;;;18.50;46.50;;;;;;5021532;28;20397;-85
2022/04/28 02:30:12;;;;;;;2.60;1.23;;;18.50;46.70;;;;;;5038147;28;20188;-84
2022/04/28 02:35:22;;;;;;;2.05;1.25;;;18.40;46.70;;;;;;5072309;28;20161;-84
2022/04/28 02:37:48;;;;;;;1.35;1.20;;;18.50;46.90;;;;;;5037928;28;20587;-86
2022/04/28 02:40:16;;;;;;;2.92;1.33;;;18.40;46.70;;;;;;5039306;28;20189;-83
2022/04/28 02:42:41;;;;;;;1.90;1.17;;;18.40;46.70;;;;;;5072097;28;20670;-85
2022/04/28 02:45:08;;;;;;;2.13;1.15;;;18.50;46.70;;;;;;5073301;28;20153;-83
2022/04/28 02:47:35;;;;;;;2.53;1.30;;;18.40;46.70;;;;;;5073254;28;20642;-82
2022/04/28 02:50:05;;;;;;;1.27;1.10;;;18.40;46.60;;;;;;5072118;28;20200;-81
2022/04/28 02:52:31;;;;;;;1.98;1.30;;;18.40;46.70;;;;;;5054482;28;20691;-80
2022/04/28 02:54:58;;;;;;;1.52;1.20;;;18.40;46.60;;;;;;5055169;28;20219;-84
2022/04/28 02:57:24;;;;;;;2.33;0.98;;;18.50;46.70;;;;;;5021889;28;20256;-85
2022/04/28 02:59:51;;;;;;;1.88;1.30;;;18.40;46.70;;;;;;5037819;28;20525;-83
2022/04/28 03:02:16;;;;;;;1.98;1.15;;;18.50;46.90;;;;;;5021346;28;20185;-83
2022/04/28 03:04:42;;;;;;;3.85;1.17;;;18.40;46.70;;;;;;5071717;28;20165;-87
2022/04/28 03:12:29;;;;;;;1.73;1.10;;;18.40;47.00;;;;;;5058720;28;20227;-84
2022/04/28 03:14:56;;;;;;;1.30;1.08;;;18.40;46.90;;;;;;5042603;28;20211;-85
2022/04/28 03:17:22;;;;;;;1.60;0.90;;;18.40;46.90;;;;;;5042824;28;20569;-83
2022/04/28 03:19:49;;;;;;;3.88;1.35;;;18.40;46.70;;;;;;5075696;28;20157;-85
2022/04/28 03:22:14;;;;;;;1.55;1.10;;;18.40;46.80;;;;;;5075641;28;20149;-83
2022/04/28 03:24:40;;;;;;;1.58;1.27;;;18.40;46.90;;;;;;5076889;28;20171;-84
2022/04/28 03:27:05;;;;;;;1.40;1.02;;;18.40;46.90;;;;;;5075613;28;20158;-82
2022/04/28 03:29:31;;;;;;;2.92;1.50;;;18.40;46.90;;;;;;5059004;28;20158;-82
2022/04/28 03:31:57;;;;;;;1.45;1.10;;;18.40;47.10;;;;;;5077084;28;20153;-84
2022/04/28 03:34:24;;;;;;;2.20;1.45;;;18.40;47.10;;;;;;5075669;28;20604;-84
2022/04/28 03:36:51;;;;;;;1.85;1.17;;;18.40;47.00;;;;;;5059241;28;20185;-81
2022/04/28 03:39:17;;;;;;;1.63;1.30;;;18.40;46.80;;;;;;5075294;28;20628;-82
2022/04/28 03:41:43;;;;;;;1.30;1.20;;;18.40;46.70;;;;;;5075309;28;20165;-81
2022/04/28 03:44:09;;;;;;;1.38;1.00;;;18.30;47.20;;;;;;5075637;28;20195;-85
2022/04/28 03:46:36;;;;;;;2.17;0.90;;;18.30;46.90;;;;;;5075148;28;20158;-83
2022/04/28 03:49:03;;;;;;;1.65;1.00;;;18.30;46.90;;;;;;5059184;28;20162;-81
2022/04/28 03:51:28;;;;;;;2.40;1.33;;;18.40;47.10;;;;;;5059032;28;20250;-86
2022/04/28 03:53:59;;;;;;;1.27;1.17;;;18.40;46.80;;;;;;5061870;28;20161;-86
2022/04/28 03:56:29;;;;;;;2.58;1.10;;;18.30;47.00;;;;;;5063582;28;20595;-86
2022/04/28 03:58:56;;;;;;;1.60;1.08;;;18.40;46.80;;;;;;5063003;28;20571;-84
2022/04/28 04:01:21;;;;;;;2.97;1.25;;;18.40;46.90;;;;;;5078541;28;20155;-83
2022/04/28 04:03:48;;;;;;;1.95;0.90;;;18.40;47.00;;;;;;5078400;28;20156;-84
2022/04/28 04:06:14;;;;;;;1.52;1.08;;;18.40;47.20;;;;;;5096318;28;20258;-84
2022/04/28 04:08:40;;;;;;;2.60;1.08;;;18.40;47.10;;;;;;5096264;28;20163;-84
2022/04/28 04:11:06;;;;;;;1.60;0.90;;;18.40;47.40;;;;;;5061049;28;20216;-85
2022/04/28 04:13:32;;;;;;;1.85;1.30;;;18.40;46.80;;;;;;5078371;28;20172;-81
2022/04/28 04:15:59;;;;;;;1.63;1.17;;;18.40;46.80;;;;;;5078081;28;20157;-81
2022/04/28 04:18:26;;;;;;;1.65;1.17;;;18.40;47.10;;;;;;5096157;28;20184;-83
2022/04/28 04:20:51;;;;;;;2.03;1.25;;;18.40;46.70;;;;;;5077897;28;20164;-84
2022/04/28 04:23:17;;;;;;;3.40;1.55;;;18.40;47.00;;;;;;5077885;28;20157;-81
2022/04/28 04:25:44;;;;;;;1.77;1.20;;;18.40;47.10;;;;;;5095817;28;20604;-85
2022/04/28 04:28:10;;;;;;;1.33;1.10;;;18.40;47.10;;;;;;5096108;28;20200;-85
2022/04/28 04:33:14;;;;;;;1.85;1.23;;;18.40;47.10;;;;;;5064693;28;20589;-86
2022/04/28 04:35:43;;;;;;;2.65;1.20;;;18.40;46.90;;;;;;5061094;28;20248;-80
2022/04/28 04:38:12;;;;;;;1.63;1.15;;;18.40;47.00;;;;;;5060408;28;20204;-85
2022/04/28 04:40:42;;;;;;;1.45;1.10;;;18.40;46.80;;;;;;5043669;28;20212;-83
2022/04/28 04:43:13;;;;;;;1.55;1.30;;;18.40;46.70;;;;;;5027011;28;20188;-82
2022/04/28 04:45:44;;;;;;;4.00;1.33;;;18.30;46.90;;;;;;5060997;28;20642;-86
2022/04/28 04:48:13;;;;;;;1.40;1.08;;;18.40;46.70;;;;;;5060183;28;20180;-81
2022/04/28 04:50:40;;;;;;;1.52;1.08;;;18.40;46.60;;;;;;5026667;28;20180;-84
2022/04/28 04:53:06;;;;;;;2.05;1.20;;;18.40;46.70;;;;;;5060512;28;20296;-82
2022/04/28 04:55:33;;;;;;;1.92;1.25;;;18.40;46.70;;;;;;5043874;28;20271;-87
2022/04/28 04:57:59;;;;;;;1.30;1.00;;;18.40;46.60;;;;;;5044199;28;20192;-85
2022/04/28 05:00:24;;;;;;;1.70;1.08;;;18.40;46.60;;;;;;5060204;28;20160;-82
2022/04/28 05:02:52;;;;;;;2.88;1.20;;;18.50;46.30;;;;;;5094983;28;20221;-84
2022/04/28 05:05:19;;;;;;;1.30;1.20;;;18.50;46.40;;;;;;5026740;28;20263;-83
2022/04/28 05:07:44;;;;;;;1.70;1.08;;;18.50;46.60;;;;;;5042878;28;20735;-81
2022/04/28 05:10:10;;;;;;;1.70;1.05;;;18.50;46.30;;;;;;5094972;28;20204;-84
2022/04/28 05:12:37;;;;;;;2.35;1.20;;;18.50;46.60;;;;;;5076807;28;20156;-81
2022/04/28 05:15:04;;;;;;;1.65;0.82;;;18.50;46.70;;;;;;5059487;28;20192;-82
2022/04/28 05:17:34;;;;;;;1.30;1.00;;;18.50;46.70;;;;;;5026116;28;20185;-82
2022/04/28 05:20:05;;;;;;;2.17;1.33;;;18.50;46.50;;;;;;5026470;28;20253;-86
2022/04/28 05:22:34;;;;;;;2.28;1.30;;;18.50;46.20;;;;;;5043082;28;20184;-85
2022/04/28 05:25:01;;;;;;;1.10;1.00;;;18.60;46.00;;;;;;5059563;28;20189;-83
2022/04/28 05:27:28;;;;;;;1.98;1.17;;;18.60;46.10;;;;;;5042323;28;20187;-86
2022/04/28 05:29:56;;;;;;;1.13;1.00;;;18.60;46.10;;;;;;5076470;28;20624;-83
2022/04/28 05:32:25;;;;;;;1.98;0.82;;;18.60;45.50;;;;;;5025777;28;20188;-85
2022/04/28 05:34:54;;;;;;;1.75;1.20;;;18.60;46.10;;;;;;5058176;28;20258;-82
2022/04/28 05:37:22;;;;;;;2.28;1.25;;;18.60;45.90;;;;;;5042559;28;20181;-84
2022/04/28 05:39:48;;;;;;;2.03;1.15;;;18.50;46.20;;;;;;5025849;28;20216;-86
2022/04/28 05:42:14;;;;;;;2.08;1.10;;;18.60;45.90;;;;;;5043074;28;20234;-85
2022/04/28 05:47:17;;;;;;;2.55;1.20;;;18.60;45.70;;;;;;5077948;28;20662;-86
2022/04/28 05:49:42;;;;;;;1.80;1.25;;;18.60;45.50;;;;;;5076068;28;20168;-82
2022/04/28 05:52:08;;;;;;;0.95;0.82;;;18.70;45.50;;;;;;5094074;28;20219;-86
2022/04/28 05:54:35;;;;;;;1.25;1.00;;;18.70;45.10;;;;;;5094119;28;20167;-84
2022/04/28 05:57:01;;;;;;;2.63;1.02;;;18.70;45.60;;;;;;5075665;28;20145;-84
2022/04/28 05:59:27;;;;;;;1.30;1.00;;;18.70;45.50;;;;;;5058751;28;20654;-84
2022/04/28 06:01:54;;;;;;;1.45;1.00;;;18.70;45.30;;;;;;5097338;28;20239;-89
2022/04/28 06:04:20;;;;;;;1.85;0.95;;;18.70;45.50;;;;;;5076036;28;20231;-86
2022/04/28 06:06:45;;;;;;;1.55;1.00;;;18.70;45.60;;;;;;5075902;28;20168;-85
2022/04/28 06:09:11;;;;;;;1.20;1.10;;;18.60;45.90;;;;;;5075921;28;20217;-84
2022/04/28 06:11:41;;;;;;;1.27;0.90;;;18.70;45.80;;;;;;5094104;28;20175;-85
2022/04/28 06:14:07;;;;;;;2.33;1.20;;;18.70;45.70;;;;;;5045189;28;20192;-85
2022/04/28 06:16:32;;;;;;;1.75;1.00;;;18.70;45.80;;;;;;5044025;28;20259;-87
2022/04/28 06:19:03;;;;;;;1.15;0.90;;;18.70;45.70;;;;;;5060236;28;20241;-87
2022/04/28 06:21:33;;;;;;;1.27;1.00;;;18.70;45.10;;;;;;5042191;28;20177;-85
2022/04/28 06:24:00;;;;;;;1.10;0.90;;;18.80;45.10;;;;;;5041929;28;20176;-87
2022/04/28 06:26:26;;;;;;;1.27;1.00;;;18.80;44.90;;;;;;5059614;28;20157;-87
2022/04/28 06:28:53;;;;;;;1.48;1.10;;;18.80;45.50;;;;;;5042484;28;20176;-88
2022/04/28 06:31:19;;;;;;;2.70;1.00;;;18.80;45.20;;;;;;5075875;28;20615;-87
2022/04/28 06:33:48;;;;;;;1.98;1.08;;;18.80;45.10;;;;;;5075482;28;20189;-84
2022/04/28 06:36:15;;;;;;;1.45;1.10;;;18.70;45.70;;;;;;5024603;28;20553;-87
2022/04/28 06:39:02;;;;;;;2.42;1.10;;;18.70;45.30;;;;;;5041756;28;20214;-83
2022/04/28 06:41:47;;;;;;;2.67;0.90;;;18.70;45.20;;;;;;5070521;28;20316;-85
2022/04/28 06:44:18;;;;;;;1.33;1.00;;;18.70;45.30;;;;;;5070375;28;20185;-85
2022/04/28 06:46:49;;;;;;;1.45;1.05;;;18.80;45.20;;;;;;5041359;28;20187;-83
2022/04/28 06:49:37;;;;;;;1.00;0.93;;;18.70;45.10;;;;;;5041296;28;20181;-86
2022/04/28 06:52:02;;;;;;;1.48;0.93;;;18.80;45.00;;;;;;5030774;28;20210;-84
2022/04/28 06:54:30;;;;;;;1.65;1.10;;;18.80;45.40;;;;;;5014817;28;20183;-87
2022/04/28 06:57:12;;;;;;;1.50;1.10;;;18.80;45.40;;;;;;4998485;28;20170;-85
2022/04/28 06:59:53;;;;;;;1.33;1.02;;;18.80;45.50;;;;;;4981676;28;20244;-85
2022/04/28 07:02:34;;;;;;;1.48;0.90;;;18.80;45.50;;;;;;4982465;28;20190;-84
2022/04/28 07:05:14;;;;;;;2.13;0.93;;;18.80;45.40;;;;;;4968775;28;20175;-88
2022/04/28 07:07:53;;;;;;;1.52;0.90;;;18.70;45.10;;;;;;4982099;28;20174;-88
2022/04/28 07:10:32;;;;;;;1.52;1.10;;;18.80;45.10;;;;;;4981777;28;20208;-87
2022/04/28 07:13:09;;;;;;;1.60;1.10;;;18.80;45.40;;;;;;4965876;28;20536;-85
2022/04/28 07:15:47;;;;;;;0.98;0.88;;;18.80;45.30;;;;;;4981964;28;20232;-86
2022/04/28 07:18:23;;;;;;;1.98;0.98;;;18.80;45.00;;;;;;4981829;28;20241;-85
2022/04/28 07:20:53;;;;;;;2.42;1.30;;;18.90;44.60;;;;;;4981915;28;20190;-83
2022/04/28 07:23:28;;;;;;;1.30;0.88;;;18.90;44.80;;;;;;4965987;28;20183;-88
2022/04/28 07:26:04;;;;;;;1.75;1.10;;;18.80;45.60;;;;;;4998018;28;20185;-84
2022/04/28 07:28:38;;;;;;;1.35;0.90;;;18.80;45.10;;;;;;4981766;28;20179;-86
2022/04/28 07:31:12;;;;;;;1.73;0.95;;;18.80;44.70;;;;;;4998286;28;20633;-84
2022/04/28 07:33:47;;;;;;;1.13;0.90;;;18.80;44.80;;;;;;4998163;28;20654;-85
2022/04/28 07:36:20;;;;;;;1.25;1.15;;;18.80;45.10;;;;;;5016662;28;20267;-84
2022/04/28 07:38:54;;;;;;;1.48;1.20;;;18.80;44.80;;;;;;5021240;28;20213;-86
2022/04/28 07:41:28;;;;;;;1.40;0.98;;;18.80;44.60;;;;;;5037893;28;20181;-83
2022/04/28 07:44:03;;;;;;;1.52;1.33;;;18.80;45.00;;;;;;5038006;28;20192;-85
2022/04/28 07:46:35;;;;;;;1.83;1.10;;;18.80;44.80;;;;;;5037761;28;20185;-87
2022/04/28 07:49:08;;;;;;;0.95;0.85;;;18.80;44.90;;;;;;5038031;28;20268;-86
2022/04/28 07:51:35;;;;;;;1.15;0.90;;;18.80;44.50;;;;;;5021922;28;20512;-86
2022/04/28 07:54:08;;;;;;;1.13;0.95;;;18.90;44.60;;;;;;5074947;28;20247;-87
2022/04/28 07:56:37;;;;;;;2.30;1.20;;;18.80;44.50;;;;;;5024440;28;20188;-83
2022/04/28 07:59:09;;;;;;;1.58;1.00;;;18.90;44.60;;;;;;5026708;28;20303;-87
2022/04/28 08:01:40;;;;;;;1.05;0.95;;;18.80;44.10;;;;;;5044504;28;20180;-86
2022/04/28 08:04:15;;;;;;;1.35;1.00;;;18.80;44.80;;;;;;5027965;28;20188;-87
2022/04/28 08:53:21;;;;;;;1.45;1.02;;;19.00;45.10;;;;;;5098906;28;20224;-84
2022/04/28 08:55:57;;;;;;;1.20;1.10;;;18.90;43.80;;;;;;5031739;28;20196;-84
2022/04/28 08:58:28;;;;;;;1.00;0.90;;;18.90;43.90;;;;;;5032916;28;20223;-84
2022/04/28 09:00:57;;;;;;;1.40;0.93;;;18.90;43.20;;;;;;5030742;28;20234;-83
2022/04/28 09:03:27;;;;;;;1.10;1.00;;;19.00;43.40;;;;;;5062347;28;20233;-83
2022/04/28 09:05:58;;;;;;;1.08;0.90;;;18.90;42.90;;;;;;5027327;28;20183;-87
2022/04/28 09:55:07;;;;;;;1.63;1.00;;;19.00;43.70;;;;;;5094174;28;20261;-85
2022/04/28 09:57:36;;;;;;;1.55;1.00;;;19.00;43.00;;;;;;5076686;28;20518;-84
2022/04/28 10:00:05;;;;;;;1.05;0.85;;;19.00;42.60;;;;;;5042568;28;20614;-86
2022/04/28 10:02:34;;;;;;;1.42;1.20;;;19.00;42.50;;;;;;5026015;28;20229;-83
2022/04/28 10:52:08;;;;;;;1.20;1.00;;;19.10;43.70;;;;;;5094898;28;20243;-86
2022/04/28 10:54:44;;;;;;;1.10;0.80;;;19.00;44.20;;;;;;5060090;28;20224;-81
2022/04/28 10:57:15;;;;;;;0.95;0.80;;;19.00;44.10;;;;;;5043571;28;20188;-85
2022/04/28 10:59:47;;;;;;;0.90;0.80;;;19.00;44.40;;;;;;5060652;28;20253;-85
2022/04/28 11:02:41;;;;;;;2.40;1.10;;;19.00;44.50;;;;;;5044446;28;20194;-84
2022/04/28 11:05:30;;;;;;;2.30;1.20;;;19.00;44.50;;;;;;5064608;28;20187;-82
2022/04/28 11:07:59;;;;;;;1.35;1.00;;;19.10;44.00;;;;;;5076755;28;20161;-85
2022/04/28 11:10:28;;;;;;;1.40;1.20;;;19.00;43.20;;;;;;5043818;28;20184;-85
2022/04/28 11:13:45;;;;;;;1.40;1.02;;;19.10;43.50;;;;;;5077393;28;20153;-87
2022/04/28 12:03:24;;;;;;;1.10;1.00;;;19.30;42.50;;;;;;5106743;28;20217;-82
2022/04/28 12:06:01;;;;;;;0.95;0.82;;;19.30;41.60;;;;;;5086913;28;20203;-85
2022/04/28 12:08:27;;;;;;;2.22;0.82;;;19.40;42.20;;;;;;5041516;28;20258;-84
2022/04/28 12:16:16;;;;;;;2.03;0.98;;;19.50;42.30;;;;;;5063765;28;20157;-83
2022/04/28 12:21:36;;;;;;;1.20;1.10;;;19.40;44.10;;;;;;5068117;28;20538;-82
2022/04/28 12:24:10;;;;;;;2.35;1.33;;;19.40;43.50;;;;;;5064430;28;20181;-82
2022/04/28 12:26:44;;;;;;;2.28;1.20;;;19.40;43.10;;;;;;5063097;28;20247;-83
2022/04/28 12:29:12;;;;;;;1.63;0.95;;;19.40;43.30;;;;;;5047634;28;20189;-82
2022/04/28 12:31:39;;;;;;;1.73;1.00;;;19.30;43.50;;;;;;5064172;28;20223;-83
2022/04/28 12:34:13;;;;;;;3.92;1.05;;;19.40;43.40;;;;;;5064852;28;20154;-83
2022/04/28 12:36:48;;;;;;;1.88;1.25;;;19.40;43.50;;;;;;5029918;28;20184;-82
2022/04/28 12:39:16;;;;;;;1.75;0.93;;;19.40;43.30;;;;;;5045644;28;20233;-84
2022/04/28 12:41:43;;;;;;;3.53;1.02;;;19.30;43.50;;;;;;5062540;28;20286;-84
2022/04/28 12:44:09;;;;;;;1.35;1.13;;;19.40;43.40;;;;;;5080339;28;20177;-82
2022/04/28 12:46:37;;;;;;;1.20;1.10;;;19.40;43.30;;;;;;5060628;28;20582;-82
2022/04/28 12:49:05;;;;;;;2.47;1.10;;;19.40;43.90;;;;;;5059867;28;20219;-85
2022/04/28 12:51:47;;;;;;;1.70;1.00;;;19.40;44.10;;;;;;5079486;28;20158;-84
2022/04/28 12:54:20;;;;;;;3.58;1.10;;;19.40;43.50;;;;;;5063079;28;20166;-85
2022/04/28 12:56:58;;;;;;;1.00;0.90;;;19.40;43.80;;;;;;5030699;28;20257;-83
2022/04/28 12:59:28;;;;;;;3.58;1.10;;;19.40;43.30;;;;;;5029461;28;20204;-83
2022/04/28 13:01:53;;;;;;;3.42;1.30;;;19.40;43.70;;;;;;5099175;28;20180;-85
2022/04/28 13:04:21;;;;;;;1.98;1.20;;;19.40;43.50;;;;;;5048423;28;20259;-87
2022/04/28 13:06:46;;;;;;;1.55;1.17;;;19.40;43.80;;;;;;5064629;28;20178;-87
2022/04/28 13:09:15;;;;;;;1.55;0.80;;;19.40;44.10;;;;;;5079866;28;20165;-84
2022/04/28 13:11:45;;;;;;;2.63;0.90;;;19.40;43.30;;;;;;5066321;28;20168;-84
2022/04/28 13:14:13;;;;;;;2.22;1.08;;;19.40;43.50;;;;;;5065294;28;20273;-83
2022/04/28 13:16:40;;;;;;;4.65;1.15;;;19.40;43.60;;;;;;5064882;28;20157;-87
2022/04/28 13:19:08;;;;;;;0.82;0.82;;;19.50;43.50;;;;;;5062843;28;20189;-85
2022/04/28 13:21:39;;;;;;;4.15;0.95;;;19.50;42.60;;;;;;5062950;28;20175;-85
2022/04/28 13:24:05;;;;;;;2.67;0.85;;;19.50;42.60;;;;;;5064401;28;20515;-86
2022/04/28 13:26:31;;;;;;;2.72;1.20;;;19.50;43.50;;;;;;5079894;28;20761;-86
2022/04/28 13:28:57;;;;;;;4.00;1.42;;;19.50;42.60;;;;;;5062184;28;20198;-84
2022/04/28 13:31:26;;;;;;;3.85;1.05;;;19.50;43.60;;;;;;5080435;28;20244;-84
2022/04/28 13:33:54;;;;;;;2.78;1.10;;;19.50;42.80;;;;;;5064147;28;20160;-85
2022/04/28 13:36:20;;;;;;;1.15;0.90;;;19.50;42.70;;;;;;5048210;28;20165;-85
2022/04/28 13:38:46;;;;;;;1.45;1.20;;;19.50;43.10;;;;;;5044340;28;20200;-85
2022/04/28 13:41:12;;;;;;;7.38;1.27;;;19.60;43.00;;;;;;5065269;28;20160;-86
2022/04/28 13:43:39;;;;;;;1.98;1.10;;;19.60;43.30;;;;;;5040829;28;20177;-86
2022/04/28 13:46:07;;;;;;;2.75;0.93;;;19.60;42.80;;;;;;5082506;28;20168;-85
2022/04/28 13:48:33;;;;;;;1.52;1.20;;;19.50;43.50;;;;;;5097010;28;20194;-84
2022/04/28 13:51:00;;;;;;;1.25;0.95;;;19.60;42.80;;;;;;5079484;28;20252;-86
2022/04/28 13:53:31;;;;;;;6.32;1.17;;;19.60;42.40;;;;;;5080192;28;20185;-86
2022/04/28 13:56:01;;;;;;;1.73;1.00;;;19.60;43.00;;;;;;5034965;28;20189;-86
2022/04/28 13:58:34;;;;;;;5.22;1.17;;;19.60;42.50;;;;;;5019366;28;20699;-86
2022/04/28 14:01:00;;;;;;;2.38;0.93;;;19.60;43.70;;;;;;5020626;28;20163;-85
2022/04/28 14:03:48;;;;;;;3.78;1.10;;;19.60;41.60;;;;;;5019446;28;20241;-83
2022/04/28 14:06:17;;;;;;;3.13;1.15;;;19.60;42.60;;;;;;4997123;28;20196;-85
2022/04/28 14:08:56;;;;;;;2.05;1.00;;;19.60;42.10;;;;;;5006160;28;20666;-87
2022/04/28 14:11:22;;;;;;;2.15;0.95;;;19.60;41.60;;;;;;5017138;28;20195;-86
2022/04/28 14:13:48;;;;;;;1.48;1.10;;;19.60;43.20;;;;;;5005836;28;20247;-86
2022/04/28 14:16:16;;;;;;;2.33;0.90;;;19.60;43.90;;;;;;4981483;28;20188;-86
2022/04/28 14:18:48;;;;;;;3.30;1.00;;;19.50;42.90;;;;;;5009942;28;20202;-85
2022/04/28 14:21:36;;;;;;;2.50;1.00;;;19.50;43.30;;;;;;5031162;28;20600;-86
2022/04/28 14:24:02;;;;;;;3.30;1.30;;;19.60;42.40;;;;;;5054088;28;20202;-85
2022/04/28 14:26:28;;;;;;;3.75;1.20;;;19.60;43.70;;;;;;5042920;28;20223;-86
2022/04/28 14:28:54;;;;;;;2.97;1.10;;;19.60;43.30;;;;;;5074990;28;20168;-84
2022/04/28 14:31:20;;;;;;;3.75;0.98;;;19.60;43.40;;;;;;5075510;28;20176;-86
2022/04/28 14:33:45;;;;;;;1.30;1.00;;;19.60;42.80;;;;;;5040286;28;20185;-88
2022/04/28 14:36:20;;;;;;;1.95;1.13;;;19.60;43.10;;;;;;5057155;28;20158;-87
2022/04/28 14:38:46;;;;;;;3.00;1.15;;;19.50;42.90;;;;;;5057293;28;20203;-87
2022/04/28 14:41:22;;;;;;;1.17;1.00;;;19.60;43.30;;;;;;5058043;28;20240;-87
2022/04/28 14:43:48;;;;;;;3.70;0.80;;;19.60;43.00;;;;;;5046109;28;20166;-86
2022/04/28 14:46:16;;;;;;;3.75;1.10;;;19.60;42.00;;;;;;5038852;28;20161;-86
2022/04/28 14:54:07;;;;;;;1.38;1.13;;;19.60;43.40;;;;;;5041053;28;20209;-85
2022/04/28 14:56:33;;;;;;;2.75;1.05;;;19.50;43.80;;;;;;5022691;28;20169;-86
2022/04/28 14:59:01;;;;;;;3.53;1.23;;;19.50;42.70;;;;;;5038835;28;20243;-89
2022/04/28 15:01:27;;;;;;;3.10;0.90;;;19.50;43.10;;;;;;5022877;28;20169;-85
2022/04/28 15:03:53;;;;;;;5.88;0.85;;;19.50;43.00;;;;;;5055554;28;20289;-85
2022/04/28 15:06:19;;;;;;;1.55;0.90;;;19.60;42.00;;;;;;5079135;28;20157;-86
2022/04/28 15:08:47;;;;;;;2.92;1.10;;;19.60;42.10;;;;;;5035674;28;20538;-85
2022/04/28 15:11:21;;;;;;;1.75;1.08;;;19.60;42.90;;;;;;5064724;28;20202;-85
2022/04/28 15:13:47;;;;;;;3.13;1.17;;;19.60;42.40;;;;;;5065096;28;20168;-85
2022/04/28 15:16:19;;;;;;;2.35;1.08;;;19.60;43.40;;;;;;5046680;28;20161;-87
2022/04/28 15:18:45;;;;;;;1.33;0.90;;;19.60;42.10;;;;;;5061884;28;20180;-85
2022/04/28 15:21:12;;;;;;;2.90;1.27;;;19.60;42.80;;;;;;5045659;28;20531;-85
2022/04/28 15:23:39;;;;;;;2.33;1.30;;;19.60;42.40;;;;;;5045180;28;20256;-87
2022/04/28 15:26:05;;;;;;;2.70;0.95;;;19.60;43.80;;;;;;5061744;28;20600;-87
2022/04/28 15:28:31;;;;;;;4.45;1.40;;;19.60;43.00;;;;;;5044816;28;20180;-87
2022/04/28 15:30:57;;;;;;;5.50;1.33;;;19.60;43.60;;;;;;5045700;28;20166;-86
2022/04/28 15:33:23;;;;;;;4.80;1.25;;;19.60;41.70;;;;;;5030378;28;20247;-87
2022/04/28 15:35:54;;;;;;;3.17;1.20;;;19.60;43.70;;;;;;5066595;28;20643;-85
2022/04/28 15:38:21;;;;;;;3.30;1.35;;;19.60;43.00;;;;;;5026116;28;20205;-87
2022/04/28 15:40:46;;;;;;;3.90;1.35;;;19.50;43.20;;;;;;5030227;28;20165;-85
2022/04/28 15:43:13;;;;;;;4.80;1.30;;;19.50;44.00;;;;;;5048111;28;20275;-86
2022/04/28 15:45:39;;;;;;;4.88;1.40;;;19.60;43.80;;;;;;5048603;28;20152;-87
2022/04/28 15:48:04;;;;;;;3.63;1.30;;;19.60;43.90;;;;;;5066120;28;20161;-87
2022/04/28 15:50:31;;;;;;;6.00;1.40;;;19.60;43.70;;;;;;5062893;28;20172;-86
2022/04/28 15:52:57;;;;;;;7.07;1.60;;;19.50;44.50;;;;;;5045110;28;20229;-87
2022/04/28 15:55:23;;;;;;;4.60;1.40;;;19.60;42.80;;;;;;5047320;28;20186;-85
2022/04/28 15:57:50;;;;;;;3.35;1.42;;;19.60;43.60;;;;;;5057852;28;20161;-88
2022/04/28 16:00:23;;;;;;;2.92;1.02;;;19.60;43.40;;;;;;5028846;28;20211;-86
2022/04/28 16:02:51;;;;;;;3.05;1.13;;;19.60;44.20;;;;;;5029095;28;20221;-88
2022/04/28 16:05:17;;;;;;;4.93;1.13;;;19.60;43.90;;;;;;5019291;28;20174;-85
2022/04/28 16:07:45;;;;;;;3.53;1.25;;;19.60;43.40;;;;;;5046995;28;20176;-86
2022/04/28 16:10:33;;;;;;;6.25;1.10;;;19.50;43.40;;;;;;5057790;28;20165;-85
2022/04/28 16:13:03;;;;;;;3.33;0.98;;;19.60;43.60;;;;;;5058138;28;20544;-85
2022/04/28 16:15:29;;;;;;;3.22;1.30;;;19.60;42.60;;;;;;5047417;28;20241;-84
2022/04/28 16:17:57;;;;;;;4.18;1.30;;;19.60;43.50;;;;;;5045290;28;20235;-86
2022/04/28 16:20:28;;;;;;;4.10;1.15;;;19.60;43.80;;;;;;5072930;28;20193;-88
2022/04/28 16:22:54;;;;;;;5.70;1.20;;;19.60;44.10;;;;;;5023470;28;20174;-85
2022/04/28 16:25:21;;;;;;;4.95;1.30;;;19.60;41.30;;;;;;5030337;28;20214;-86
2022/04/28 16:27:47;;;;;;;5.57;1.67;;;19.70;42.70;;;;;;5002422;28;20198;-85
2022/04/28 16:30:17;;;;;;;5.80;1.38;;;19.70;41.90;;;;;;5038889;28;20159;-85
2022/04/28 16:32:44;;;;;;;8.20;1.65;;;19.70;42.50;;;;;;5005872;28;20178;-87
2022/04/28 16:35:10;;;;;;;4.25;1.75;;;19.70;43.00;;;;;;5034611;28;20158;-86
2022/04/28 16:37:40;;;;;;;4.00;1.25;;;19.70;42.30;;;;;;5034484;28;20147;-87